Maysville, Kentucky
Current Conditions -  °F | °C
As of 8:35 PM on Sunday 23 Nov 2014 (Local Time) from KFGX Reporting Station
Drizzle Drizzle  
Wind Chill: 55°   Ceiling: 11000
Heat Index: 55°   Visibility: 10mi
Dew Point: 53°   Wind: 25mph
Humidity: 91%   Direction: 140°SE
Pressure: 29.41"   Gusts: 32mph
Location:  38.64°N, 83.76°W
Report Text: KFGX 240135Z AUTO 14022G28KT 10SM DZ OVC110 13/12 A2941 RMK AO2 T01290115
Loading
Personal Weather Stations






























Interactive Weather Map New forecast layout! Learn more

10-Day Weather Forecast

Advertisements
Track Severe Weather on mobile